TimeEST,TemperatureF,Dew PointF,Humidity,Sea Level PressureIn,VisibilityMPH,Wind Direction,Wind SpeedMPH,Gust SpeedMPH,PrecipitationIn,Events,Conditions,WindDirDegrees,DateUTC
12:15 AM,46.6,33.8,61,30.14,10.0,SSE,3.5,-,N/A,,Overcast,150,2012-11-20 05:15:00
12:35 AM,46.6,34.0,62,30.14,10.0,SSE,3.5,-,N/A,,Overcast,160,2012-11-20 05:35:00
12:55 AM,47.3,34.3,61,30.14,10.0,SSE,3.5,-,N/A,,Overcast,160,2012-11-20 05:55:00
1:15 AM,47.3,34.5,61,30.14,10.0,SE,3.5,-,N/A,,Overcast,140,2012-11-20 06:15:00
1:35 AM,47.3,34.3,61,30.13,10.0,ESE,4.6,-,N/A,,Overcast,120,2012-11-20 06:35:00
1:54 AM,46.4,35.6,66,30.13,10.0,ESE,4.6,-,N/A,,Overcast,120,2012-11-20 06:54:00
2:14 AM,46.4,35.1,65,30.13,10.0,SSE,5.8,-,N/A,,Overcast,150,2012-11-20 07:14:00
2:35 AM,46.4,35.2,65,30.13,10.0,SSE,4.6,-,N/A,,Overcast,150,2012-11-20 07:35:00
2:55 AM,45.9,35.6,67,30.13,10.0,SSE,4.6,-,N/A,,Overcast,150,2012-11-20 07:55:00
3:15 AM,46.0,36.5,69,30.13,10.0,SSE,3.5,-,N/A,Rain,Light Rain,160,2012-11-20 08:15:00
3:35 AM,45.5,37.4,73,30.13,10.0,SE,3.5,-,N/A,,Overcast,130,2012-11-20 08:35:00
3:55 AM,45.0,37.9,76,30.13,10.0,ESE,3.5,-,N/A,,Overcast,110,2012-11-20 08:55:00
4:14 AM,44.6,37.9,77,30.12,10.0,Calm,Calm,-,N/A,Rain,Light Rain,0,2012-11-20 09:14:00
4:35 AM,44.6,38.7,80,30.12,10.0,Calm,Calm,-,N/A,,Overcast,0,2012-11-20 09:35:00
4:55 AM,43.7,39.2,84,30.12,10.0,Calm,Calm,-,N/A,,Overcast,0,2012-11-20 09:55:00
5:15 AM,43.7,39.4,85,30.12,10.0,SE,3.5,-,N/A,,Overcast,130,2012-11-20 10:15:00
5:34 AM,43.7,39.4,85,30.12,10.0,SSE,3.5,-,N/A,Rain,Light Rain,150,2012-11-20 10:34:00
5:54 AM,44.2,38.5,80,30.12,10.0,SE,4.6,-,N/A,,Overcast,140,2012-11-20 10:54:00
6:15 AM,44.2,38.5,80,30.12,10.0,SSE,3.5,-,N/A,,Light Drizzle,160,2012-11-20 11:15:00
6:34 AM,44.6,37.9,77,30.13,10.0,South,4.6,-,N/A,,Overcast,170,2012-11-20 11:34:00
6:55 AM,44.6,37.9,77,30.12,10.0,SSE,3.5,-,N/A,,Overcast,150,2012-11-20 11:55:00
7:14 AM,44.4,38.1,79,30.12,10.0,SSE,3.5,-,N/A,,Overcast,160,2012-11-20 12:14:00
7:34 AM,44.6,38.3,79,30.12,10.0,SE,3.5,-,N/A,,Overcast,140,2012-11-20 12:34:00
7:55 AM,44.1,38.5,81,30.13,7.0,SE,3.5,-,N/A,,Overcast,130,2012-11-20 12:55:00
8:15 AM,44.1,38.3,80,30.13,10.0,SE,3.5,-,N/A,,Overcast,140,2012-11-20 13:15:00
8:35 AM,44.4,38.5,80,30.13,7.0,South,3.5,-,N/A,,Overcast,170,2012-11-20 13:35:00
8:55 AM,44.6,39.2,81,30.13,7.0,SSE,3.5,-,N/A,,Overcast,150,2012-11-20 13:55:00
9:15 AM,45.0,39.7,82,30.13,7.0,Calm,Calm,-,N/A,,Overcast,0,2012-11-20 14:15:00
9:35 AM,45.5,40.1,81,30.13,7.0,Calm,Calm,-,N/A,,Overcast,0,2012-11-20 14:35:00
9:55 AM,45.5,40.5,83,30.13,7.0,Calm,Calm,-,N/A,,Overcast,0,2012-11-20 14:55:00
10:15 AM,45.7,40.6,83,30.12,7.0,SE,3.5,-,N/A,,Overcast,140,2012-11-20 15:15:00
10:35 AM,46.6,40.3,79,30.13,7.0,South,3.5,-,N/A,,Overcast,180,2012-11-20 15:35:00
10:55 AM,46.9,41.0,80,30.12,7.0,SE,3.5,-,N/A,,Overcast,140,2012-11-20 15:55:00
11:15 AM,47.5,41.2,79,30.12,7.0,Calm,Calm,-,N/A,,Overcast,0,2012-11-20 16:15:00
11:35 AM,48.2,41.5,78,30.13,7.0,Calm,Calm,-,N/A,,Overcast,0,2012-11-20 16:35:00
11:55 AM,49.1,41.9,76,30.12,7.0,Calm,Calm,-,N/A,,Overcast,0,2012-11-20 16:55:00
12:14 PM,49.5,41.7,75,30.11,7.0,Calm,Calm,-,N/A,,Overcast,0,2012-11-20 17:14:00
12:35 PM,50.4,42.1,73,30.10,7.0,SSW,4.6,-,N/A,,Mostly Cloudy,200,2012-11-20 17:35:00
12:55 PM,51.8,42.6,71,30.11,7.0,SW,5.8,-,N/A,,Scattered Clouds,230,2012-11-20 17:55:00
1:14 PM,50.5,42.6,74,30.12,7.0,SSW,3.5,-,N/A,,Mostly Cloudy,210,2012-11-20 18:14:00
1:55 PM,50.2,43.3,77,30.12,7.0,WSW,5.8,-,N/A,,Overcast,250,2012-11-20 18:55:00
2:15 PM,50.0,43.5,78,30.12,7.0,Calm,Calm,-,N/A,,Overcast,0,2012-11-20 19:15:00
2:35 PM,50.0,43.7,79,30.13,7.0,West,5.8,-,N/A,,Overcast,280,2012-11-20 19:35:00
2:54 PM,49.3,43.7,81,30.13,7.0,West,5.8,-,N/A,,Overcast,280,2012-11-20 19:54:00
3:15 PM,49.1,44.1,83,30.12,7.0,West,3.5,-,N/A,,Overcast,270,2012-11-20 20:15:00
3:35 PM,49.1,44.2,83,30.12,5.0,Calm,Calm,-,N/A,,Haze,0,2012-11-20 20:35:00
3:55 PM,49.1,44.1,83,30.13,5.0,Calm,Calm,-,N/A,,Haze,0,2012-11-20 20:55:00
4:15 PM,49.3,43.9,82,30.13,5.0,Calm,Calm,-,N/A,,Haze,0,2012-11-20 21:15:00
4:35 PM,48.7,43.7,83,30.14,5.0,Calm,Calm,-,N/A,,Haze,0,2012-11-20 21:35:00
4:55 PM,48.2,43.7,84,30.14,5.0,Calm,Calm,-,N/A,,Overcast,0,2012-11-20 21:55:00
5:13 PM,48.2,43.9,85,30.14,5.0,Calm,Calm,-,N/A,,Overcast,0,2012-11-20 22:13:00
5:34 PM,47.7,44.1,87,30.14,5.0,West,3.5,-,N/A,,Overcast,270,2012-11-20 22:34:00
5:55 PM,47.3,44.2,89,30.14,5.0,WSW,3.5,-,N/A,,Overcast,250,2012-11-20 22:55:00
6:14 PM,47.3,44.6,90,30.14,5.0,WSW,3.5,-,N/A,,Overcast,250,2012-11-20 23:14:00
6:34 PM,47.3,44.6,90,30.15,5.0,Calm,Calm,-,N/A,,Overcast,0,2012-11-20 23:34:00
6:55 PM,47.3,44.2,89,30.15,5.0,Calm,Calm,-,N/A,,Overcast,0,2012-11-20 23:55:00
7:14 PM,46.4,43.9,91,30.16,5.0,West,3.5,-,N/A,,Overcast,260,2012-11-21 00:14:00
7:35 PM,46.4,44.1,92,30.17,4.0,WNW,3.5,-,N/A,,Overcast,300,2012-11-21 00:35:00
7:55 PM,46.6,44.6,93,30.17,4.0,West,4.6,-,N/A,,Overcast,270,2012-11-21 00:55:00
8:15 PM,46.2,44.1,92,30.17,3.0,Calm,Calm,-,N/A,,Overcast,0,2012-11-21 01:15:00
8:35 PM,46.4,44.2,92,30.17,4.0,West,3.5,-,N/A,,Overcast,270,2012-11-21 01:35:00
8:54 PM,45.3,44.1,95,30.17,3.0,Calm,Calm,-,N/A,,Overcast,0,2012-11-21 01:54:00
9:14 PM,45.0,43.7,95,30.17,2.0,Calm,Calm,-,N/A,,Overcast,0,2012-11-21 02:14:00
9:35 PM,43.7,42.8,97,30.17,2.0,Calm,Calm,-,N/A,,Overcast,0,2012-11-21 02:35:00
9:54 PM,44.1,43.2,97,30.17,2.0,Calm,Calm,-,N/A,,Overcast,0,2012-11-21 02:54:00
10:15 PM,44.6,43.7,97,30.17,2.5,Calm,Calm,-,N/A,,Overcast,0,2012-11-21 03:15:00
10:34 PM,44.8,43.9,97,30.17,2.5,Calm,Calm,-,N/A,,Overcast,0,2012-11-21 03:34:00
10:55 PM,45.0,43.9,96,30.17,2.5,Calm,Calm,-,N/A,,Overcast,0,2012-11-21 03:55:00
11:14 PM,45.5,44.6,97,30.17,2.5,Calm,Calm,-,N/A,,Overcast,0,2012-11-21 04:14:00
11:35 PM,45.9,44.6,95,30.17,4.0,South,3.5,-,N/A,,Overcast,190,2012-11-21 04:35:00
11:54 PM,46.2,44.2,93,30.17,4.0,South,4.6,-,N/A,,Overcast,170,2012-11-21 04:54:00